sensor_id;sensor_type;location;lat;lon;timestamp;P1;durP1;ratioP1;P2;durP2;ratioP2
57225;SDS011;43082;43.568;22.256;2022-10-31T00:01:24;24.73;;;17.17;;
57225;SDS011;43082;43.568;22.256;2022-10-31T00:03:50;25.20;;;16.33;;
57225;SDS011;43082;43.568;22.256;2022-10-31T00:06:15;22.67;;;14.90;;
57225;SDS011;43082;43.568;22.256;2022-10-31T00:08:45;25.02;;;15.27;;
57225;SDS011;43082;43.568;22.256;2022-10-31T00:11:11;20.15;;;13.48;;
57225;SDS011;43082;43.568;22.256;2022-10-31T00:13:36;19.30;;;13.60;;
57225;SDS011;43082;43.568;22.256;2022-10-31T00:16:02;22.33;;;13.10;;
57225;SDS011;43082;43.568;22.256;2022-10-31T00:18:27;22.33;;;13.65;;
57225;SDS011;43082;43.568;22.256;2022-10-31T00:20:59;23.13;;;12.65;;
57225;SDS011;43082;43.568;22.256;2022-10-31T00:23:26;19.80;;;12.75;;
57225;SDS011;43082;43.568;22.256;2022-10-31T00:25:51;19.67;;;10.85;;
57225;SDS011;43082;43.568;22.256;2022-10-31T00:28:17;19.60;;;12.27;;
57225;SDS011;43082;43.568;22.256;2022-10-31T00:30:42;18.75;;;12.23;;
57225;SDS011;43082;43.568;22.256;2022-10-31T00:33:07;18.85;;;11.70;;
57225;SDS011;43082;43.568;22.256;2022-10-31T00:35:34;18.17;;;12.07;;
57225;SDS011;43082;43.568;22.256;2022-10-31T00:37:59;20.77;;;12.50;;
57225;SDS011;43082;43.568;22.256;2022-10-31T00:40:25;20.35;;;12.23;;
57225;SDS011;43082;43.568;22.256;2022-10-31T00:42:50;19.67;;;12.68;;
57225;SDS011;43082;43.568;22.256;2022-10-31T00:45:16;20.35;;;12.65;;
57225;SDS011;43082;43.568;22.256;2022-10-31T00:47:41;21.73;;;13.15;;
57225;SDS011;43082;43.568;22.256;2022-10-31T00:50:07;23.23;;;13.32;;
57225;SDS011;43082;43.568;22.256;2022-10-31T00:52:33;24.02;;;14.05;;
57225;SDS011;43082;43.568;22.256;2022-10-31T00:54:58;26.05;;;14.23;;
57225;SDS011;43082;43.568;22.256;2022-10-31T00:57:24;21.95;;;13.88;;
57225;SDS011;43082;43.568;22.256;2022-10-31T00:59:49;26.45;;;16.42;;
57225;SDS011;43082;43.568;22.256;2022-10-31T01:02:15;22.20;;;13.85;;
57225;SDS011;43082;43.568;22.256;2022-10-31T01:04:40;25.52;;;15.07;;
57225;SDS011;43082;43.568;22.256;2022-10-31T01:07:05;35.97;;;21.50;;
57225;SDS011;43082;43.568;22.256;2022-10-31T01:09:31;25.52;;;15.43;;
57225;SDS011;43082;43.568;22.256;2022-10-31T01:11:57;29.40;;;16.55;;
57225;SDS011;43082;43.568;22.256;2022-10-31T01:14:22;27.13;;;15.80;;
57225;SDS011;43082;43.568;22.256;2022-10-31T01:16:48;27.27;;;15.60;;
57225;SDS011;43082;43.568;22.256;2022-10-31T01:19:13;26.23;;;15.10;;
57225;SDS011;43082;43.568;22.256;2022-10-31T01:21:38;25.58;;;14.73;;
57225;SDS011;43082;43.568;22.256;2022-10-31T01:24:04;24.88;;;13.98;;
57225;SDS011;43082;43.568;22.256;2022-10-31T01:26:30;21.83;;;12.88;;
57225;SDS011;43082;43.568;22.256;2022-10-31T01:28:57;22.30;;;12.75;;
57225;SDS011;43082;43.568;22.256;2022-10-31T01:31:28;25.48;;;12.07;;
57225;SDS011;43082;43.568;22.256;2022-10-31T01:33:55;23.75;;;12.98;;
57225;SDS011;43082;43.568;22.256;2022-10-31T01:36:22;21.05;;;12.80;;
57225;SDS011;43082;43.568;22.256;2022-10-31T01:38:53;24.30;;;12.85;;
57225;SDS011;43082;43.568;22.256;2022-10-31T01:41:21;23.38;;;12.50;;
57225;SDS011;43082;43.568;22.256;2022-10-31T01:43:50;20.15;;;13.05;;
57225;SDS011;43082;43.568;22.256;2022-10-31T01:48:55;20.92;;;13.32;;
57225;SDS011;43082;43.568;22.256;2022-10-31T01:51:25;20.58;;;13.38;;
57225;SDS011;43082;43.568;22.256;2022-10-31T01:53:53;21.30;;;13.63;;
57225;SDS011;43082;43.568;22.256;2022-10-31T01:56:20;19.88;;;12.52;;
57225;SDS011;43082;43.568;22.256;2022-10-31T01:58:46;18.35;;;11.52;;
57225;SDS011;43082;43.568;22.256;2022-10-31T02:01:12;21.65;;;13.85;;
57225;SDS011;43082;43.568;22.256;2022-10-31T02:03:39;19.08;;;11.43;;
57225;SDS011;43082;43.568;22.256;2022-10-31T02:06:06;19.40;;;10.90;;
57225;SDS011;43082;43.568;22.256;2022-10-31T02:08:38;16.98;;;9.60;;
57225;SDS011;43082;43.568;22.256;2022-10-31T02:11:04;17.50;;;8.25;;
57225;SDS011;43082;43.568;22.256;2022-10-31T02:13:30;15.85;;;8.52;;
57225;SDS011;43082;43.568;22.256;2022-10-31T02:15:57;20.92;;;12.55;;
57225;SDS011;43082;43.568;22.256;2022-10-31T02:18:24;24.75;;;15.80;;
57225;SDS011;43082;43.568;22.256;2022-10-31T02:24:21;17.85;;;10.73;;
57225;SDS011;43082;43.568;22.256;2022-10-31T02:26:23;16.15;;;9.32;;
57225;SDS011;43082;43.568;22.256;2022-10-31T02:36:52;15.32;;;9.38;;
57225;SDS011;43082;43.568;22.256;2022-10-31T02:39:23;12.55;;;7.78;;
57225;SDS011;43082;43.568;22.256;2022-10-31T02:42:07;12.25;;;6.85;;
57225;SDS011;43082;43.568;22.256;2022-10-31T02:47:12;16.38;;;10.07;;
57225;SDS011;43082;43.568;22.256;2022-10-31T02:49:50;15.82;;;10.20;;
57225;SDS011;43082;43.568;22.256;2022-10-31T02:52:21;16.45;;;9.93;;
57225;SDS011;43082;43.568;22.256;2022-10-31T02:54:49;13.20;;;8.30;;
57225;SDS011;43082;43.568;22.256;2022-10-31T02:57:15;17.27;;;9.30;;
57225;SDS011;43082;43.568;22.256;2022-10-31T02:59:47;13.65;;;8.55;;
57225;SDS011;43082;43.568;22.256;2022-10-31T03:05:02;14.43;;;8.27;;
57225;SDS011;43082;43.568;22.256;2022-10-31T03:07:42;14.55;;;8.93;;
57225;SDS011;43082;43.568;22.256;2022-10-31T03:13:09;14.90;;;8.55;;
57225;SDS011;43082;43.568;22.256;2022-10-31T03:15:39;15.95;;;9.02;;
57225;SDS011;43082;43.568;22.256;2022-10-31T03:18:11;15.38;;;9.40;;
57225;SDS011;43082;43.568;22.256;2022-10-31T03:20:40;17.42;;;9.52;;
57225;SDS011;43082;43.568;22.256;2022-10-31T03:23:26;16.27;;;9.27;;
57225;SDS011;43082;43.568;22.256;2022-10-31T03:25:53;14.73;;;9.13;;
57225;SDS011;43082;43.568;22.256;2022-10-31T03:28:22;16.27;;;8.75;;
57225;SDS011;43082;43.568;22.256;2022-10-31T03:30:52;14.38;;;8.68;;
57225;SDS011;43082;43.568;22.256;2022-10-31T03:33:20;15.65;;;9.60;;
57225;SDS011;43082;43.568;22.256;2022-10-31T03:35:48;13.85;;;9.00;;
57225;SDS011;43082;43.568;22.256;2022-10-31T03:38:16;15.43;;;8.95;;
57225;SDS011;43082;43.568;22.256;2022-10-31T03:40:43;16.23;;;9.30;;
57225;SDS011;43082;43.568;22.256;2022-10-31T03:43:19;16.85;;;9.52;;
57225;SDS011;43082;43.568;22.256;2022-10-31T03:45:48;14.80;;;9.25;;
57225;SDS011;43082;43.568;22.256;2022-10-31T03:48:14;13.88;;;8.93;;
57225;SDS011;43082;43.568;22.256;2022-10-31T03:51:26;14.10;;;8.52;;
57225;SDS011;43082;43.568;22.256;2022-10-31T03:53:34;14.25;;;9.10;;
57225;SDS011;43082;43.568;22.256;2022-10-31T03:56:17;15.93;;;8.70;;
57225;SDS011;43082;43.568;22.256;2022-10-31T03:58:55;14.38;;;8.90;;
57225;SDS011;43082;43.568;22.256;2022-10-31T04:01:23;13.75;;;8.75;;
57225;SDS011;43082;43.568;22.256;2022-10-31T04:03:49;13.77;;;8.90;;
57225;SDS011;43082;43.568;22.256;2022-10-31T04:06:15;14.32;;;8.90;;
57225;SDS011;43082;43.568;22.256;2022-10-31T04:08:44;16.08;;;9.50;;
57225;SDS011;43082;43.568;22.256;2022-10-31T04:11:14;16.38;;;9.65;;
57225;SDS011;43082;43.568;22.256;2022-10-31T04:13:42;14.57;;;9.82;;
57225;SDS011;43082;43.568;22.256;2022-10-31T04:16:09;18.63;;;10.55;;
57225;SDS011;43082;43.568;22.256;2022-10-31T04:18:35;15.52;;;10.00;;
57225;SDS011;43082;43.568;22.256;2022-10-31T04:21:01;17.00;;;9.65;;
57225;SDS011;43082;43.568;22.256;2022-10-31T04:23:29;14.65;;;8.75;;
57225;SDS011;43082;43.568;22.256;2022-10-31T04:25:55;14.35;;;9.05;;
57225;SDS011;43082;43.568;22.256;2022-10-31T04:28:21;13.48;;;8.30;;
57225;SDS011;43082;43.568;22.256;2022-10-31T04:30:46;13.63;;;8.70;;
57225;SDS011;43082;43.568;22.256;2022-10-31T04:33:12;14.30;;;8.68;;
57225;SDS011;43082;43.568;22.256;2022-10-31T04:35:37;15.80;;;8.52;;
57225;SDS011;43082;43.568;22.256;2022-10-31T04:38:02;13.63;;;8.23;;
57225;SDS011;43082;43.568;22.256;2022-10-31T04:40:28;14.93;;;8.80;;
57225;SDS011;43082;43.568;22.256;2022-10-31T04:42:53;15.20;;;9.63;;
57225;SDS011;43082;43.568;22.256;2022-10-31T04:45:19;19.25;;;10.48;;
57225;SDS011;43082;43.568;22.256;2022-10-31T04:47:44;16.30;;;10.52;;
57225;SDS011;43082;43.568;22.256;2022-10-31T04:50:10;16.30;;;9.98;;
57225;SDS011;43082;43.568;22.256;2022-10-31T04:52:39;17.33;;;11.02;;
57225;SDS011;43082;43.568;22.256;2022-10-31T04:55:05;20.08;;;12.02;;
57225;SDS011;43082;43.568;22.256;2022-10-31T04:57:30;22.05;;;13.38;;
57225;SDS011;43082;43.568;22.256;2022-10-31T04:59:56;26.85;;;12.43;;
57225;SDS011;43082;43.568;22.256;2022-10-31T05:02:21;22.52;;;13.65;;
57225;SDS011;43082;43.568;22.256;2022-10-31T05:04:47;22.10;;;13.70;;
57225;SDS011;43082;43.568;22.256;2022-10-31T05:07:12;21.98;;;14.57;;
57225;SDS011;43082;43.568;22.256;2022-10-31T05:09:37;22.23;;;14.95;;
57225;SDS011;43082;43.568;22.256;2022-10-31T05:12:03;21.70;;;14.80;;
57225;SDS011;43082;43.568;22.256;2022-10-31T05:14:28;22.90;;;13.98;;
57225;SDS011;43082;43.568;22.256;2022-10-31T05:16:54;22.88;;;15.15;;
57225;SDS011;43082;43.568;22.256;2022-10-31T05:19:19;25.05;;;17.15;;
57225;SDS011;43082;43.568;22.256;2022-10-31T05:21:45;27.98;;;18.63;;
57225;SDS011;43082;43.568;22.256;2022-10-31T05:24:10;35.28;;;24.48;;
57225;SDS011;43082;43.568;22.256;2022-10-31T05:26:35;36.67;;;25.40;;
57225;SDS011;43082;43.568;22.256;2022-10-31T05:29:01;30.55;;;23.17;;
57225;SDS011;43082;43.568;22.256;2022-10-31T05:31:26;33.20;;;22.67;;
57225;SDS011;43082;43.568;22.256;2022-10-31T05:33:52;25.95;;;15.93;;
57225;SDS011;43082;43.568;22.256;2022-10-31T05:36:17;25.40;;;15.55;;
57225;SDS011;43082;43.568;22.256;2022-10-31T05:38:43;21.63;;;13.80;;
57225;SDS011;43082;43.568;22.256;2022-10-31T05:41:08;20.25;;;14.23;;
57225;SDS011;43082;43.568;22.256;2022-10-31T05:43:34;19.75;;;12.65;;
57225;SDS011;43082;43.568;22.256;2022-10-31T05:46:00;21.10;;;13.88;;
57225;SDS011;43082;43.568;22.256;2022-10-31T05:48:25;21.17;;;14.73;;
57225;SDS011;43082;43.568;22.256;2022-10-31T05:50:51;22.73;;;15.57;;
57225;SDS011;43082;43.568;22.256;2022-10-31T05:53:17;22.98;;;14.13;;
57225;SDS011;43082;43.568;22.256;2022-10-31T05:55:42;22.95;;;14.23;;
57225;SDS011;43082;43.568;22.256;2022-10-31T05:58:08;25.70;;;16.30;;
57225;SDS011;43082;43.568;22.256;2022-10-31T06:00:35;31.98;;;20.63;;
57225;SDS011;43082;43.568;22.256;2022-10-31T06:03:01;28.65;;;17.70;;
57225;SDS011;43082;43.568;22.256;2022-10-31T06:05:28;27.35;;;16.55;;
57225;SDS011;43082;43.568;22.256;2022-10-31T06:07:54;23.55;;;16.10;;
57225;SDS011;43082;43.568;22.256;2022-10-31T06:10:20;25.10;;;16.73;;
57225;SDS011;43082;43.568;22.256;2022-10-31T06:12:46;33.83;;;20.90;;
57225;SDS011;43082;43.568;22.256;2022-10-31T06:15:12;37.13;;;23.17;;
57225;SDS011;43082;43.568;22.256;2022-10-31T06:17:38;41.92;;;26.83;;
57225;SDS011;43082;43.568;22.256;2022-10-31T06:20:03;40.60;;;24.05;;
57225;SDS011;43082;43.568;22.256;2022-10-31T06:22:29;36.88;;;25.75;;
57225;SDS011;43082;43.568;22.256;2022-10-31T06:24:55;31.27;;;23.08;;
57225;SDS011;43082;43.568;22.256;2022-10-31T06:27:20;45.17;;;27.30;;
57225;SDS011;43082;43.568;22.256;2022-10-31T06:29:46;52.70;;;28.25;;
57225;SDS011;43082;43.568;22.256;2022-10-31T06:32:12;41.70;;;26.38;;
57225;SDS011;43082;43.568;22.256;2022-10-31T06:34:38;32.15;;;21.45;;
57225;SDS011;43082;43.568;22.256;2022-10-31T06:37:10;28.88;;;20.83;;
57225;SDS011;43082;43.568;22.256;2022-10-31T06:39:37;31.90;;;22.15;;
57225;SDS011;43082;43.568;22.256;2022-10-31T06:42:02;39.30;;;28.35;;
57225;SDS011;43082;43.568;22.256;2022-10-31T06:44:28;34.97;;;22.80;;
57225;SDS011;43082;43.568;22.256;2022-10-31T06:46:53;34.72;;;21.55;;
57225;SDS011;43082;43.568;22.256;2022-10-31T06:49:19;34.42;;;21.45;;
57225;SDS011;43082;43.568;22.256;2022-10-31T06:51:47;33.13;;;22.00;;
57225;SDS011;43082;43.568;22.256;2022-10-31T06:54:13;32.28;;;23.52;;
57225;SDS011;43082;43.568;22.256;2022-10-31T06:56:38;34.60;;;23.33;;
57225;SDS011;43082;43.568;22.256;2022-10-31T06:59:03;39.35;;;25.85;;
57225;SDS011;43082;43.568;22.256;2022-10-31T07:01:29;36.63;;;26.20;;
57225;SDS011;43082;43.568;22.256;2022-10-31T07:03:54;59.08;;;41.70;;
57225;SDS011;43082;43.568;22.256;2022-10-31T07:06:20;49.50;;;31.38;;
57225;SDS011;43082;43.568;22.256;2022-10-31T07:08:45;63.03;;;41.58;;
57225;SDS011;43082;43.568;22.256;2022-10-31T07:11:10;43.50;;;27.17;;
57225;SDS011;43082;43.568;22.256;2022-10-31T07:13:36;40.53;;;28.50;;
57225;SDS011;43082;43.568;22.256;2022-10-31T07:16:02;35.47;;;25.48;;
57225;SDS011;43082;43.568;22.256;2022-10-31T07:18:29;34.58;;;22.73;;
57225;SDS011;43082;43.568;22.256;2022-10-31T07:20:54;34.58;;;27.90;;
57225;SDS011;43082;43.568;22.256;2022-10-31T07:23:20;39.35;;;25.20;;
57225;SDS011;43082;43.568;22.256;2022-10-31T07:25:46;33.08;;;25.35;;
57225;SDS011;43082;43.568;22.256;2022-10-31T07:28:12;36.05;;;27.52;;
57225;SDS011;43082;43.568;22.256;2022-10-31T07:30:37;39.65;;;30.63;;
57225;SDS011;43082;43.568;22.256;2022-10-31T07:33:03;47.92;;;34.17;;
57225;SDS011;43082;43.568;22.256;2022-10-31T07:35:30;44.80;;;27.15;;
57225;SDS011;43082;43.568;22.256;2022-10-31T07:37:56;38.97;;;28.48;;
57225;SDS011;43082;43.568;22.256;2022-10-31T07:40:22;30.88;;;22.98;;
57225;SDS011;43082;43.568;22.256;2022-10-31T07:42:51;44.92;;;32.47;;
57225;SDS011;43082;43.568;22.256;2022-10-31T07:45:18;44.70;;;29.85;;
57225;SDS011;43082;43.568;22.256;2022-10-31T07:47:48;47.03;;;33.88;;
57225;SDS011;43082;43.568;22.256;2022-10-31T07:50:18;38.60;;;29.50;;
57225;SDS011;43082;43.568;22.256;2022-10-31T07:52:45;32.97;;;22.80;;
57225;SDS011;43082;43.568;22.256;2022-10-31T07:55:10;34.53;;;22.17;;
57225;SDS011;43082;43.568;22.256;2022-10-31T07:57:36;32.17;;;24.80;;
57225;SDS011;43082;43.568;22.256;2022-10-31T08:00:05;38.92;;;30.23;;
57225;SDS011;43082;43.568;22.256;2022-10-31T08:02:32;47.50;;;35.45;;
57225;SDS011;43082;43.568;22.256;2022-10-31T08:04:57;33.58;;;19.83;;
57225;SDS011;43082;43.568;22.256;2022-10-31T08:07:24;22.92;;;16.08;;
57225;SDS011;43082;43.568;22.256;2022-10-31T08:09:50;20.77;;;13.70;;
57225;SDS011;43082;43.568;22.256;2022-10-31T08:12:16;23.80;;;13.27;;
57225;SDS011;43082;43.568;22.256;2022-10-31T08:14:41;17.90;;;11.07;;
57225;SDS011;43082;43.568;22.256;2022-10-31T08:17:07;18.33;;;12.90;;
57225;SDS011;43082;43.568;22.256;2022-10-31T08:19:32;17.35;;;11.98;;
57225;SDS011;43082;43.568;22.256;2022-10-31T08:21:57;21.63;;;13.20;;
57225;SDS011;43082;43.568;22.256;2022-10-31T08:24:23;17.27;;;13.13;;
57225;SDS011;43082;43.568;22.256;2022-10-31T08:26:49;22.73;;;16.25;;
57225;SDS011;43082;43.568;22.256;2022-10-31T08:29:14;27.33;;;16.60;;
57225;SDS011;43082;43.568;22.256;2022-10-31T08:31:40;24.40;;;17.80;;
57225;SDS011;43082;43.568;22.256;2022-10-31T08:34:06;22.80;;;17.08;;
57225;SDS011;43082;43.568;22.256;2022-10-31T08:36:31;26.20;;;15.48;;
57225;SDS011;43082;43.568;22.256;2022-10-31T08:38:57;23.17;;;15.43;;
57225;SDS011;43082;43.568;22.256;2022-10-31T08:41:22;17.63;;;12.82;;
57225;SDS011;43082;43.568;22.256;2022-10-31T08:43:48;19.85;;;13.25;;
57225;SDS011;43082;43.568;22.256;2022-10-31T08:46:13;19.55;;;12.68;;
57225;SDS011;43082;43.568;22.256;2022-10-31T08:48:39;19.98;;;12.68;;
57225;SDS011;43082;43.568;22.256;2022-10-31T08:51:04;21.40;;;12.88;;
57225;SDS011;43082;43.568;22.256;2022-10-31T08:53:30;17.95;;;11.65;;
57225;SDS011;43082;43.568;22.256;2022-10-31T08:55:55;23.95;;;13.15;;
57225;SDS011;43082;43.568;22.256;2022-10-31T08:58:21;26.80;;;18.40;;
57225;SDS011;43082;43.568;22.256;2022-10-31T09:00:48;17.92;;;11.48;;
57225;SDS011;43082;43.568;22.256;2022-10-31T09:03:20;16.88;;;12.00;;
57225;SDS011;43082;43.568;22.256;2022-10-31T09:05:49;19.17;;;11.73;;
57225;SDS011;43082;43.568;22.256;2022-10-31T09:08:15;17.10;;;12.15;;
57225;SDS011;43082;43.568;22.256;2022-10-31T09:10:41;20.95;;;15.57;;
57225;SDS011;43082;43.568;22.256;2022-10-31T09:13:11;27.42;;;17.88;;
57225;SDS011;43082;43.568;22.256;2022-10-31T09:15:39;23.27;;;16.23;;
57225;SDS011;43082;43.568;22.256;2022-10-31T09:18:06;28.38;;;15.13;;
57225;SDS011;43082;43.568;22.256;2022-10-31T09:20:33;20.55;;;12.27;;
57225;SDS011;43082;43.568;22.256;2022-10-31T09:23:06;16.98;;;11.98;;
57225;SDS011;43082;43.568;22.256;2022-10-31T09:25:34;21.70;;;12.93;;
57225;SDS011;43082;43.568;22.256;2022-10-31T09:28:01;19.25;;;12.73;;
57225;SDS011;43082;43.568;22.256;2022-10-31T09:30:29;22.98;;;13.07;;
57225;SDS011;43082;43.568;22.256;2022-10-31T09:32:59;19.13;;;12.05;;
57225;SDS011;43082;43.568;22.256;2022-10-31T09:35:29;20.33;;;12.52;;
57225;SDS011;43082;43.568;22.256;2022-10-31T09:40:29;16.67;;;11.05;;
57225;SDS011;43082;43.568;22.256;2022-10-31T09:45:35;16.77;;;11.52;;
57225;SDS011;43082;43.568;22.256;2022-10-31T09:51:08;17.42;;;11.82;;
57225;SDS011;43082;43.568;22.256;2022-10-31T09:53:42;18.67;;;11.73;;
57225;SDS011;43082;43.568;22.256;2022-10-31T09:56:13;16.55;;;10.57;;
57225;SDS011;43082;43.568;22.256;2022-10-31T09:58:45;18.08;;;11.73;;
57225;SDS011;43082;43.568;22.256;2022-10-31T10:09:56;15.60;;;9.85;;
57225;SDS011;43082;43.568;22.256;2022-10-31T10:15:16;18.88;;;10.10;;
57225;SDS011;43082;43.568;22.256;2022-10-31T10:28:26;14.80;;;9.23;;
57225;SDS011;43082;43.568;22.256;2022-10-31T10:33:36;13.95;;;7.90;;
57225;SDS011;43082;43.568;22.256;2022-10-31T10:36:47;18.63;;;8.88;;
57225;SDS011;43082;43.568;22.256;2022-10-31T10:41:27;14.95;;;10.32;;
57225;SDS011;43082;43.568;22.256;2022-10-31T10:43:56;14.98;;;9.90;;
57225;SDS011;43082;43.568;22.256;2022-10-31T10:46:40;16.45;;;8.90;;
57225;SDS011;43082;43.568;22.256;2022-10-31T10:49:45;14.82;;;10.13;;
57225;SDS011;43082;43.568;22.256;2022-10-31T10:55:00;16.88;;;9.50;;
57225;SDS011;43082;43.568;22.256;2022-10-31T11:00:31;12.85;;;8.48;;
57225;SDS011;43082;43.568;22.256;2022-10-31T11:02:59;16.10;;;8.93;;
57225;SDS011;43082;43.568;22.256;2022-10-31T11:05:36;13.00;;;8.32;;
57225;SDS011;43082;43.568;22.256;2022-10-31T11:08:04;14.38;;;8.50;;
57225;SDS011;43082;43.568;22.256;2022-10-31T11:10:30;13.38;;;8.40;;
57225;SDS011;43082;43.568;22.256;2022-10-31T11:13:14;12.77;;;7.60;;
57225;SDS011;43082;43.568;22.256;2022-10-31T11:15:50;11.93;;;7.38;;
57225;SDS011;43082;43.568;22.256;2022-10-31T11:18:29;13.15;;;7.50;;
57225;SDS011;43082;43.568;22.256;2022-10-31T11:21:00;15.00;;;7.60;;
57225;SDS011;43082;43.568;22.256;2022-10-31T11:23:28;14.70;;;8.32;;
57225;SDS011;43082;43.568;22.256;2022-10-31T11:25:54;15.85;;;8.95;;
57225;SDS011;43082;43.568;22.256;2022-10-31T11:28:25;14.27;;;8.43;;
57225;SDS011;43082;43.568;22.256;2022-10-31T11:31:05;13.15;;;7.60;;
57225;SDS011;43082;43.568;22.256;2022-10-31T11:33:39;12.52;;;7.28;;
57225;SDS011;43082;43.568;22.256;2022-10-31T11:36:32;12.45;;;7.35;;
57225;SDS011;43082;43.568;22.256;2022-10-31T11:38:56;16.48;;;9.30;;
57225;SDS011;43082;43.568;22.256;2022-10-31T11:41:25;14.13;;;7.88;;
57225;SDS011;43082;43.568;22.256;2022-10-31T11:46:41;14.50;;;8.27;;
57225;SDS011;43082;43.568;22.256;2022-10-31T11:49:16;13.43;;;7.70;;
57225;SDS011;43082;43.568;22.256;2022-10-31T11:51:46;12.47;;;8.00;;
57225;SDS011;43082;43.568;22.256;2022-10-31T11:54:21;14.88;;;7.72;;
57225;SDS011;43082;43.568;22.256;2022-10-31T11:56:53;13.60;;;7.68;;
57225;SDS011;43082;43.568;22.256;2022-10-31T11:59:23;14.18;;;7.30;;
57225;SDS011;43082;43.568;22.256;2022-10-31T12:01:52;10.93;;;7.10;;
57225;SDS011;43082;43.568;22.256;2022-10-31T12:04:18;14.15;;;6.72;;
57225;SDS011;43082;43.568;22.256;2022-10-31T12:06:54;12.05;;;7.32;;
57225;SDS011;43082;43.568;22.256;2022-10-31T12:09:21;11.02;;;6.13;;
57225;SDS011;43082;43.568;22.256;2022-10-31T12:12:08;11.32;;;6.82;;
57225;SDS011;43082;43.568;22.256;2022-10-31T12:15:18;10.52;;;6.65;;
57225;SDS011;43082;43.568;22.256;2022-10-31T12:35:49;12.13;;;6.55;;
57225;SDS011;43082;43.568;22.256;2022-10-31T12:38:15;11.20;;;6.10;;
57225;SDS011;43082;43.568;22.256;2022-10-31T12:40:53;11.85;;;7.00;;
57225;SDS011;43082;43.568;22.256;2022-10-31T12:43:42;13.05;;;7.20;;
57225;SDS011;43082;43.568;22.256;2022-10-31T13:00:03;14.40;;;9.05;;
57225;SDS011;43082;43.568;22.256;2022-10-31T13:02:38;13.93;;;8.02;;
57225;SDS011;43082;43.568;22.256;2022-10-31T13:10:32;11.73;;;6.90;;
57225;SDS011;43082;43.568;22.256;2022-10-31T13:13:23;16.60;;;7.28;;
57225;SDS011;43082;43.568;22.256;2022-10-31T13:16:00;12.88;;;6.95;;
57225;SDS011;43082;43.568;22.256;2022-10-31T13:18:30;14.13;;;7.82;;
57225;SDS011;43082;43.568;22.256;2022-10-31T13:20:58;15.40;;;7.72;;
57225;SDS011;43082;43.568;22.256;2022-10-31T13:23:32;15.35;;;7.93;;
57225;SDS011;43082;43.568;22.256;2022-10-31T13:25:59;19.30;;;7.47;;
57225;SDS011;43082;43.568;22.256;2022-10-31T13:31:09;11.27;;;7.03;;
57225;SDS011;43082;43.568;22.256;2022-10-31T13:33:46;12.95;;;7.10;;
57225;SDS011;43082;43.568;22.256;2022-10-31T13:41:28;14.68;;;6.30;;
57225;SDS011;43082;43.568;22.256;2022-10-31T13:44:02;12.43;;;6.95;;
57225;SDS011;43082;43.568;22.256;2022-10-31T13:46:49;10.68;;;6.00;;
57225;SDS011;43082;43.568;22.256;2022-10-31T13:49:23;12.20;;;6.60;;
57225;SDS011;43082;43.568;22.256;2022-10-31T13:51:49;11.50;;;7.00;;
57225;SDS011;43082;43.568;22.256;2022-10-31T13:56:56;12.00;;;6.30;;
57225;SDS011;43082;43.568;22.256;2022-10-31T13:59:21;12.82;;;6.28;;
57225;SDS011;43082;43.568;22.256;2022-10-31T14:04:17;16.13;;;8.15;;
57225;SDS011;43082;43.568;22.256;2022-10-31T14:11:47;13.18;;;8.60;;
57225;SDS011;43082;43.568;22.256;2022-10-31T14:14:14;21.52;;;10.35;;
57225;SDS011;43082;43.568;22.256;2022-10-31T14:16:40;15.75;;;8.93;;
57225;SDS011;43082;43.568;22.256;2022-10-31T14:19:13;16.85;;;9.25;;
57225;SDS011;43082;43.568;22.256;2022-10-31T14:21:42;13.85;;;8.63;;
57225;SDS011;43082;43.568;22.256;2022-10-31T14:34:42;12.88;;;7.40;;
57225;SDS011;43082;43.568;22.256;2022-10-31T14:52:52;20.15;;;10.73;;
57225;SDS011;43082;43.568;22.256;2022-10-31T14:55:20;18.95;;;12.10;;
57225;SDS011;43082;43.568;22.256;2022-10-31T14:57:51;19.27;;;11.82;;
57225;SDS011;43082;43.568;22.256;2022-10-31T15:00:20;26.23;;;13.23;;
57225;SDS011;43082;43.568;22.256;2022-10-31T15:03:08;28.60;;;18.05;;
57225;SDS011;43082;43.568;22.256;2022-10-31T15:05:57;23.10;;;15.45;;
57225;SDS011;43082;43.568;22.256;2022-10-31T15:08:26;31.08;;;14.18;;
57225;SDS011;43082;43.568;22.256;2022-10-31T15:10:52;29.67;;;14.57;;
57225;SDS011;43082;43.568;22.256;2022-10-31T15:13:18;31.58;;;20.75;;
57225;SDS011;43082;43.568;22.256;2022-10-31T15:15:45;36.72;;;25.23;;
57225;SDS011;43082;43.568;22.256;2022-10-31T15:18:17;49.58;;;35.92;;
57225;SDS011;43082;43.568;22.256;2022-10-31T15:20:46;38.05;;;27.42;;
57225;SDS011;43082;43.568;22.256;2022-10-31T15:23:25;37.03;;;28.50;;
57225;SDS011;43082;43.568;22.256;2022-10-31T15:25:59;30.17;;;22.50;;
57225;SDS011;43082;43.568;22.256;2022-10-31T15:28:25;28.40;;;19.17;;
57225;SDS011;43082;43.568;22.256;2022-10-31T15:30:52;23.25;;;15.98;;
57225;SDS011;43082;43.568;22.256;2022-10-31T15:33:31;24.83;;;16.77;;
57225;SDS011;43082;43.568;22.256;2022-10-31T15:36:04;27.08;;;15.55;;
57225;SDS011;43082;43.568;22.256;2022-10-31T15:38:29;24.48;;;16.80;;
57225;SDS011;43082;43.568;22.256;2022-10-31T15:43:29;31.85;;;19.95;;
57225;SDS011;43082;43.568;22.256;2022-10-31T15:45:59;37.50;;;24.38;;
57225;SDS011;43082;43.568;22.256;2022-10-31T15:48:25;44.83;;;29.05;;
57225;SDS011;43082;43.568;22.256;2022-10-31T15:50:52;42.88;;;28.90;;
57225;SDS011;43082;43.568;22.256;2022-10-31T15:53:21;75.47;;;47.95;;
57225;SDS011;43082;43.568;22.256;2022-10-31T15:58:39;93.50;;;60.70;;
57225;SDS011;43082;43.568;22.256;2022-10-31T16:01:19;107.53;;;71.03;;
57225;SDS011;43082;43.568;22.256;2022-10-31T16:03:54;36.83;;;24.33;;
57225;SDS011;43082;43.568;22.256;2022-10-31T16:06:36;57.03;;;43.60;;
57225;SDS011;43082;43.568;22.256;2022-10-31T16:09:03;68.50;;;43.28;;
57225;SDS011;43082;43.568;22.256;2022-10-31T16:11:36;48.58;;;35.15;;
57225;SDS011;43082;43.568;22.256;2022-10-31T16:14:04;58.78;;;37.45;;
57225;SDS011;43082;43.568;22.256;2022-10-31T16:16:32;54.80;;;35.47;;
57225;SDS011;43082;43.568;22.256;2022-10-31T16:19:00;43.30;;;30.80;;
57225;SDS011;43082;43.568;22.256;2022-10-31T16:21:36;35.45;;;22.27;;
57225;SDS011;43082;43.568;22.256;2022-10-31T16:24:24;34.75;;;25.13;;
57225;SDS011;43082;43.568;22.256;2022-10-31T16:26:53;38.45;;;24.35;;
57225;SDS011;43082;43.568;22.256;2022-10-31T16:29:43;38.80;;;25.48;;
57225;SDS011;43082;43.568;22.256;2022-10-31T16:35:55;44.13;;;29.77;;
57225;SDS011;43082;43.568;22.256;2022-10-31T16:38:02;71.38;;;44.92;;
57225;SDS011;43082;43.568;22.256;2022-10-31T16:40:28;63.55;;;46.95;;
57225;SDS011;43082;43.568;22.256;2022-10-31T16:42:56;73.82;;;56.65;;
57225;SDS011;43082;43.568;22.256;2022-10-31T16:45:23;80.55;;;55.35;;
57225;SDS011;43082;43.568;22.256;2022-10-31T16:47:53;79.35;;;56.45;;
57225;SDS011;43082;43.568;22.256;2022-10-31T16:50:25;77.63;;;57.15;;
57225;SDS011;43082;43.568;22.256;2022-10-31T16:52:52;84.82;;;60.83;;
57225;SDS011;43082;43.568;22.256;2022-10-31T16:55:18;93.68;;;66.18;;
57225;SDS011;43082;43.568;22.256;2022-10-31T16:57:45;105.93;;;81.22;;
57225;SDS011;43082;43.568;22.256;2022-10-31T17:00:16;124.90;;;89.82;;